Time;durP1;ratioP1;P1;durP2;ratioP2;P2;SDS_P1;SDS_P2;PMS_P1;PMS_P2;Temp;Humidity;BMP_temperature;BMP_pressure;BME280_temperature;BME280_humidity;BME280_pressure;Samples;Min_cycle;Max_cycle;Signal;HPM_P1;HPM_P2
2023/02/05 00:01:37;;;;;;;30.88;17.98;;;-1.90;99.90;;;;;;5073194;28;20351;-66
2023/02/05 00:04:04;;;;;;;31.55;18.23;;;-1.90;99.90;;;;;;5073349;28;20060;-66
2023/02/05 00:06:31;;;;;;;30.50;17.40;;;-2.00;99.90;;;;;;5072887;28;20072;-66
2023/02/05 00:08:59;;;;;;;32.13;17.70;;;-2.00;99.90;;;;;;5073520;28;20051;-66
2023/02/05 00:11:26;;;;;;;30.80;18.15;;;-2.10;99.90;;;;;;5073212;28;20048;-66
2023/02/05 00:13:54;;;;;;;28.95;16.63;;;-2.10;99.90;;;;;;5073304;28;20044;-66
2023/02/05 00:16:22;;;;;;;28.70;16.60;;;-2.10;99.90;;;;;;5046193;28;20491;-66
2023/02/05 00:18:51;;;;;;;32.55;17.98;;;-2.10;99.90;;;;;;5073571;28;20064;-65
2023/02/05 00:21:20;;;;;;;29.90;16.85;;;-2.10;99.90;;;;;;5067893;28;20061;-65
2023/02/05 00:23:48;;;;;;;27.67;16.42;;;-2.10;99.90;;;;;;5073867;28;20040;-66
2023/02/05 00:26:16;;;;;;;29.10;16.90;;;-2.20;99.90;;;;;;5072633;28;20040;-66
2023/02/05 00:28:44;;;;;;;32.70;17.58;;;-2.10;99.90;;;;;;5073251;28;20041;-66
2023/02/05 00:31:18;;;;;;;35.92;19.05;;;-2.10;99.90;;;;;;5073299;28;20075;-65
2023/02/05 00:33:46;;;;;;;35.20;18.48;;;-2.10;99.90;;;;;;5073348;28;20494;-66
2023/02/05 00:36:14;;;;;;;28.73;15.85;;;-2.10;99.90;;;;;;5073733;28;20036;-65
2023/02/05 00:38:42;;;;;;;33.45;17.02;;;-2.10;99.90;;;;;;5070265;28;20135;-66
2023/02/05 00:41:10;;;;;;;26.63;16.63;;;-2.20;99.90;;;;;;5073601;28;20040;-66
2023/02/05 00:43:38;;;;;;;24.65;13.75;;;-2.10;99.90;;;;;;5073263;28;20406;-66
2023/02/05 00:46:07;;;;;;;27.65;15.27;;;-2.20;99.90;;;;;;5072956;28;20090;-66
2023/02/05 00:48:34;;;;;;;24.20;13.93;;;-2.10;99.90;;;;;;5087926;28;20044;-65
2023/02/05 00:51:01;;;;;;;23.88;13.88;;;-2.00;99.90;;;;;;5060674;28;20246;-66
2023/02/05 00:53:29;;;;;;;25.25;13.77;;;-2.00;99.90;;;;;;5045463;28;20103;-66
2023/02/05 00:55:56;;;;;;;22.25;13.73;;;-1.90;99.90;;;;;;5072382;28;20491;-65
2023/02/05 00:58:24;;;;;;;22.52;13.63;;;-1.90;99.90;;;;;;5087214;28;20120;-66
2023/02/05 01:00:52;;;;;;;27.58;13.90;;;-1.90;99.90;;;;;;5061712;28;20040;-66
2023/02/05 01:03:19;;;;;;;21.60;13.73;;;-1.90;99.90;;;;;;5072383;28;20121;-66
2023/02/05 01:05:47;;;;;;;23.27;13.32;;;-1.90;99.90;;;;;;5072133;28;20067;-66
2023/02/05 01:08:14;;;;;;;21.23;13.93;;;-2.00;99.90;;;;;;5087574;28;20044;-65
2023/02/05 01:10:47;;;;;;;24.55;13.68;;;-2.00;99.90;;;;;;5087761;28;20150;-64
2023/02/05 01:13:15;;;;;;;24.58;13.43;;;-2.00;99.90;;;;;;5071165;28;20502;-66
2023/02/05 01:15:44;;;;;;;25.02;13.93;;;-2.00;99.90;;;;;;5054186;28;20048;-66
2023/02/05 01:18:12;;;;;;;20.67;12.80;;;-2.00;99.90;;;;;;5072367;28;20483;-66
2023/02/05 01:20:41;;;;;;;24.10;13.20;;;-2.00;99.90;;;;;;5073302;28;20048;-66
2023/02/05 01:23:10;;;;;;;21.15;12.52;;;-2.10;99.90;;;;;;5071532;28;20136;-66
2023/02/05 01:25:38;;;;;;;23.10;13.10;;;-2.10;99.90;;;;;;5070865;28;20495;-65
2023/02/05 01:28:07;;;;;;;20.88;12.02;;;-2.10;99.90;;;;;;5072938;28;20059;-66
2023/02/05 01:30:35;;;;;;;20.08;11.35;;;-2.10;99.90;;;;;;5088421;28;20493;-67
2023/02/05 01:33:03;;;;;;;19.13;11.70;;;-2.20;99.90;;;;;;5072990;28;20048;-66
2023/02/05 01:35:30;;;;;;;18.90;11.55;;;-2.20;99.90;;;;;;5072848;28;20383;-66
2023/02/05 01:37:59;;;;;;;16.00;10.32;;;-2.30;99.90;;;;;;5089043;28;20040;-65
2023/02/05 01:40:26;;;;;;;20.42;10.80;;;-2.30;99.90;;;;;;5053828;28;20049;-67
2023/02/05 01:42:54;;;;;;;19.65;11.70;;;-2.30;99.90;;;;;;5071121;28;20411;-66
2023/02/05 01:45:21;;;;;;;16.75;11.15;;;-2.20;99.90;;;;;;5071886;28;20364;-65
2023/02/05 01:47:51;;;;;;;16.27;10.68;;;-2.20;99.90;;;;;;5087658;28;20044;-67
2023/02/05 01:50:30;;;;;;;18.58;11.35;;;-2.10;99.90;;;;;;5058698;28;20488;-67
2023/02/05 01:53:03;;;;;;;13.90;9.77;;;-2.10;99.90;;;;;;5067258;28;20061;-66
2023/02/05 01:55:31;;;;;;;16.33;9.93;;;-2.10;99.90;;;;;;5069473;28;20529;-65
2023/02/05 01:58:00;;;;;;;15.07;9.75;;;-2.10;99.90;;;;;;5071668;28;20521;-66
2023/02/05 02:00:27;;;;;;;19.23;10.50;;;-2.10;99.90;;;;;;5086876;28;20143;-66
2023/02/05 02:02:54;;;;;;;16.80;10.02;;;-2.10;99.90;;;;;;5070433;28;20040;-66
2023/02/05 02:05:22;;;;;;;15.63;9.73;;;-2.10;99.90;;;;;;5086497;28;20037;-67
2023/02/05 02:07:49;;;;;;;18.02;10.52;;;-2.20;99.90;;;;;;5062982;28;20040;-66
2023/02/05 02:10:18;;;;;;;18.35;10.18;;;-2.20;99.90;;;;;;5071019;28;20466;-66
2023/02/05 02:12:47;;;;;;;14.88;10.32;;;-2.20;99.90;;;;;;5071386;28;20045;-66
2023/02/05 02:15:22;;;;;;;15.32;9.73;;;-2.20;99.90;;;;;;5044597;28;20064;-67
2023/02/05 02:17:54;;;;;;;17.27;9.90;;;-2.20;99.90;;;;;;5069777;28;20562;-66
2023/02/05 02:20:31;;;;;;;19.08;10.45;;;-2.20;99.90;;;;;;5069829;28;20090;-66
2023/02/05 02:23:34;;;;;;;16.95;10.25;;;-2.20;99.90;;;;;;5086254;28;20457;-68
2023/02/05 02:26:34;;;;;;;18.73;10.52;;;-2.30;99.90;;;;;;5067120;28;20067;-67
2023/02/05 02:29:03;;;;;;;15.05;9.63;;;-2.30;99.90;;;;;;5071146;28;20052;-66
2023/02/05 02:31:33;;;;;;;17.27;10.48;;;-2.20;99.90;;;;;;5070843;28;20062;-65
2023/02/05 02:34:13;;;;;;;16.88;10.35;;;-2.30;99.90;;;;;;5069842;28;20470;-65
2023/02/05 02:36:52;;;;;;;16.77;10.95;;;-2.30;99.90;;;;;;5059221;28;20352;-65
2023/02/05 02:39:30;;;;;;;15.73;10.75;;;-2.30;99.90;;;;;;5069819;28;20032;-65
2023/02/05 02:42:12;;;;;;;17.52;10.82;;;-2.30;99.90;;;;;;5086251;28;20041;-65
2023/02/05 02:44:45;;;;;;;19.07;10.93;;;-2.40;99.90;;;;;;5070725;28;20043;-65
2023/02/05 02:47:21;;;;;;;18.25;10.70;;;-2.40;99.90;;;;;;5070524;28;20037;-64
2023/02/05 02:49:59;;;;;;;18.27;11.00;;;-2.40;99.90;;;;;;5075520;28;20514;-65
2023/02/05 02:52:32;;;;;;;21.98;11.30;;;-2.40;99.90;;;;;;5068966;28;20075;-65
2023/02/05 02:55:04;;;;;;;20.05;11.40;;;-2.40;99.90;;;;;;5064639;28;20045;-65
2023/02/05 02:57:36;;;;;;;18.55;11.07;;;-2.50;99.90;;;;;;5069881;28;20056;-66
2023/02/05 03:00:11;;;;;;;21.23;11.30;;;-2.50;99.90;;;;;;5070802;28;20059;-65
2023/02/05 03:02:40;;;;;;;20.63;11.80;;;-2.50;99.90;;;;;;5069152;28;20044;-65
2023/02/05 03:05:13;;;;;;;25.17;11.77;;;-2.40;99.90;;;;;;5069031;28;20060;-66
2023/02/05 03:07:57;;;;;;;17.15;10.88;;;-2.40;99.90;;;;;;5086057;28;20515;-66
2023/02/05 03:10:29;;;;;;;15.90;10.35;;;-2.40;99.90;;;;;;5052608;28;20040;-65
2023/02/05 03:12:57;;;;;;;21.75;11.15;;;-2.40;99.90;;;;;;5068666;28;20106;-66
2023/02/05 03:15:26;;;;;;;18.00;10.65;;;-2.40;99.90;;;;;;5065141;28;20095;-66
2023/02/05 03:17:55;;;;;;;19.23;11.98;;;-2.50;99.90;;;;;;5065330;28;20399;-66
2023/02/05 03:20:29;;;;;;;18.67;11.25;;;-2.50;99.90;;;;;;5076222;28;20043;-66
2023/02/05 03:22:57;;;;;;;22.92;12.02;;;-2.50;99.90;;;;;;5067051;28;20050;-66
2023/02/05 03:25:28;;;;;;;19.08;11.93;;;-2.50;99.90;;;;;;5070347;28;20127;-67
2023/02/05 03:27:57;;;;;;;17.35;11.90;;;-2.50;99.90;;;;;;5069041;28;20422;-66
2023/02/05 03:30:52;;;;;;;19.10;11.73;;;-2.40;99.90;;;;;;5084085;28;20135;-66
2023/02/05 03:33:56;;;;;;;24.63;11.32;;;-2.40;99.90;;;;;;5019866;28;20118;-66
2023/02/05 03:36:31;;;;;;;19.92;11.50;;;-2.30;99.90;;;;;;5067155;28;20566;-67
2023/02/05 03:39:49;;;;;;;19.90;11.57;;;-2.30;99.90;;;;;;5087351;28;20459;-66
2023/02/05 03:42:43;;;;;;;19.98;11.23;;;-2.30;99.90;;;;;;5065518;28;20033;-66
2023/02/05 03:45:31;;;;;;;20.10;11.60;;;-2.40;99.90;;;;;;5026191;28;20491;-65
2023/02/05 03:48:29;;;;;;;18.02;10.27;;;-2.40;99.90;;;;;;5057311;28;20040;-65
2023/02/05 03:51:28;;;;;;;21.60;11.55;;;-2.50;99.90;;;;;;5050225;28;20075;-65
2023/02/05 03:54:27;;;;;;;17.17;10.77;;;-2.50;99.90;;;;;;5088542;28;20494;-66
2023/02/05 03:57:02;;;;;;;17.27;10.23;;;-2.50;99.90;;;;;;5077926;28;20371;-65
2023/02/05 03:59:34;;;;;;;18.45;10.65;;;-2.50;99.90;;;;;;5040773;28;20040;-65
2023/02/05 04:02:04;;;;;;;19.25;10.80;;;-2.50;99.90;;;;;;5070076;28;20083;-64
2023/02/05 04:04:37;;;;;;;16.50;9.85;;;-2.50;99.90;;;;;;5050738;28;20046;-64
2023/02/05 04:07:06;;;;;;;14.98;9.45;;;-2.60;99.90;;;;;;5072078;28;20118;-65
2023/02/05 04:09:35;;;;;;;15.25;9.40;;;-2.60;99.90;;;;;;5070783;28;20046;-64
2023/02/05 04:12:03;;;;;;;16.75;10.85;;;-2.60;99.90;;;;;;5077493;28;20036;-64
2023/02/05 04:14:31;;;;;;;17.98;11.00;;;-2.60;99.90;;;;;;5067570;28;20119;-63
2023/02/05 04:16:59;;;;;;;16.92;9.93;;;-2.60;99.90;;;;;;5061003;28;20136;-62
2023/02/05 04:19:26;;;;;;;19.75;10.13;;;-2.70;99.90;;;;;;5072093;28;20033;-65
2023/02/05 04:21:57;;;;;;;16.38;10.95;;;-2.70;99.90;;;;;;5078660;28;20041;-63
2023/02/05 04:24:24;;;;;;;17.80;9.73;;;-2.70;99.90;;;;;;5068824;28;20048;-64
2023/02/05 04:26:52;;;;;;;15.82;10.48;;;-2.70;99.90;;;;;;5088451;28;20082;-63
2023/02/05 04:29:20;;;;;;;15.93;10.15;;;-2.70;99.90;;;;;;5071630;28;20383;-64
2023/02/05 04:31:50;;;;;;;17.35;10.30;;;-2.70;99.90;;;;;;5087147;28;20469;-63
2023/02/05 04:34:17;;;;;;;17.25;9.77;;;-2.70;99.90;;;;;;5071139;28;20055;-63
2023/02/05 04:36:45;;;;;;;15.63;10.25;;;-2.70;99.90;;;;;;5088371;28;20058;-64
2023/02/05 04:39:12;;;;;;;17.08;10.43;;;-2.70;99.90;;;;;;5067288;28;20033;-63
2023/02/05 04:41:40;;;;;;;16.10;9.50;;;-2.70;99.90;;;;;;5051958;28;20043;-64
2023/02/05 04:44:07;;;;;;;20.45;10.65;;;-2.80;99.90;;;;;;5051251;28;20040;-63
2023/02/05 04:46:35;;;;;;;16.60;9.07;;;-2.80;99.90;;;;;;5033665;28;20577;-63
2023/02/05 04:49:02;;;;;;;17.40;10.00;;;-2.90;99.90;;;;;;5049129;28;20045;-63
2023/02/05 04:51:30;;;;;;;17.80;10.30;;;-2.80;99.90;;;;;;5051060;28;21189;-63
2023/02/05 04:53:57;;;;;;;14.98;9.63;;;-2.80;99.90;;;;;;5050228;28;20064;-64
2023/02/05 04:56:24;;;;;;;16.45;10.00;;;-2.80;99.90;;;;;;5047427;28;20041;-64
2023/02/05 04:58:52;;;;;;;16.40;10.38;;;-2.70;99.90;;;;;;5047604;28;20030;-63
2023/02/05 05:01:21;;;;;;;16.67;9.73;;;-2.80;99.90;;;;;;5030892;28;20525;-63
2023/02/05 05:03:49;;;;;;;15.40;9.43;;;-2.80;99.90;;;;;;5046688;28;20384;-63
2023/02/05 05:06:17;;;;;;;14.45;8.82;;;-2.80;99.90;;;;;;5032271;28;20045;-65
2023/02/05 05:08:45;;;;;;;15.73;9.63;;;-2.80;99.90;;;;;;5046283;28;20347;-63
2023/02/05 05:11:16;;;;;;;14.52;8.93;;;-2.80;99.90;;;;;;5051545;28;20033;-62
2023/02/05 05:13:44;;;;;;;12.82;8.95;;;-2.90;99.90;;;;;;5042707;28;20048;-63
2023/02/05 05:16:12;;;;;;;15.07;9.00;;;-2.80;99.90;;;;;;5031210;28;20049;-64
2023/02/05 05:18:40;;;;;;;14.07;8.80;;;-2.90;99.90;;;;;;5031507;28;20400;-62
2023/02/05 05:21:07;;;;;;;15.23;9.00;;;-2.90;99.90;;;;;;5031586;28;20526;-63
2023/02/05 05:23:37;;;;;;;13.85;8.57;;;-2.90;99.90;;;;;;5033056;28;20048;-62
2023/02/05 05:26:06;;;;;;;13.90;8.30;;;-2.90;99.90;;;;;;5051587;28;20423;-63
2023/02/05 05:28:34;;;;;;;16.23;9.48;;;-2.90;99.90;;;;;;5045379;28;20495;-64
2023/02/05 05:31:15;;;;;;;18.35;9.30;;;-2.90;99.90;;;;;;5032410;28;20120;-63
2023/02/05 05:33:42;;;;;;;15.18;9.15;;;-3.00;99.90;;;;;;5031233;28;20100;-63
2023/02/05 05:36:10;;;;;;;16.48;9.55;;;-2.90;99.90;;;;;;5030556;28;20051;-63
2023/02/05 05:38:38;;;;;;;15.40;9.35;;;-2.90;99.90;;;;;;5034431;28;20037;-63
2023/02/05 05:43:53;;;;;;;14.52;8.95;;;-3.00;99.90;;;;;;5032098;28;20038;-62
2023/02/05 05:46:23;;;;;;;15.85;8.82;;;-3.00;99.90;;;;;;5030278;28;20141;-63
2023/02/05 05:48:52;;;;;;;15.07;9.52;;;-3.00;99.90;;;;;;5034530;28;20064;-63
2023/02/05 05:51:21;;;;;;;14.20;9.07;;;-3.00;99.90;;;;;;5048655;28;20049;-63
2023/02/05 05:53:48;;;;;;;16.58;9.45;;;-3.00;99.90;;;;;;5031518;28;20046;-64
2023/02/05 05:56:16;;;;;;;16.33;9.30;;;-3.00;99.90;;;;;;5028703;28;20510;-65
2023/02/05 05:58:44;;;;;;;14.48;8.50;;;-3.00;99.90;;;;;;5029102;28;20046;-64
2023/02/05 06:01:13;;;;;;;15.32;9.05;;;-3.00;99.90;;;;;;5029212;28;20071;-64
2023/02/05 06:03:40;;;;;;;15.15;9.57;;;-3.00;99.90;;;;;;5029826;28;20037;-65
2023/02/05 06:06:10;;;;;;;12.25;8.00;;;-3.00;99.90;;;;;;5043439;28;20646;-64
2023/02/05 06:08:38;;;;;;;15.45;8.70;;;-3.00;99.90;;;;;;5037880;28;20488;-64
2023/02/05 06:11:05;;;;;;;17.55;10.18;;;-2.90;99.90;;;;;;5030235;28;20045;-64
2023/02/05 06:13:33;;;;;;;13.88;9.00;;;-2.90;99.90;;;;;;5033551;28;20045;-64
2023/02/05 06:16:01;;;;;;;13.85;8.60;;;-2.90;99.90;;;;;;5051397;28;20087;-65
2023/02/05 06:18:29;;;;;;;14.80;8.80;;;-2.90;99.90;;;;;;5049359;28;20507;-64
2023/02/05 06:20:56;;;;;;;16.05;9.10;;;-2.90;99.90;;;;;;5050576;28;20037;-64
2023/02/05 06:23:24;;;;;;;14.35;9.75;;;-2.90;99.90;;;;;;5032316;28;20388;-63
2023/02/05 06:25:51;;;;;;;15.52;9.23;;;-2.90;99.90;;;;;;5030840;28;20553;-64
2023/02/05 06:28:18;;;;;;;14.25;9.02;;;-2.90;99.90;;;;;;5030855;28;20041;-65
2023/02/05 06:30:46;;;;;;;16.27;8.95;;;-2.90;99.90;;;;;;5049685;28;20053;-64
2023/02/05 06:33:13;;;;;;;14.77;8.85;;;-2.90;99.90;;;;;;5050901;28;20045;-65
2023/02/05 06:35:41;;;;;;;12.63;8.15;;;-2.80;99.90;;;;;;5045425;28;20046;-64
2023/02/05 06:38:08;;;;;;;17.60;9.35;;;-2.90;99.90;;;;;;5031529;28;20038;-64
2023/02/05 06:40:36;;;;;;;15.18;9.02;;;-2.80;99.90;;;;;;5049789;28;20053;-63
2023/02/05 06:43:03;;;;;;;15.93;9.45;;;-2.80;99.90;;;;;;5035887;28;20076;-64
2023/02/05 06:45:30;;;;;;;15.38;8.82;;;-2.70;99.90;;;;;;5030004;28;20428;-64
2023/02/05 06:47:58;;;;;;;15.20;8.43;;;-2.60;99.90;;;;;;5030010;28;20046;-65
2023/02/05 06:50:25;;;;;;;14.13;8.75;;;-2.60;99.90;;;;;;5045005;28;20079;-64
2023/02/05 06:52:53;;;;;;;13.80;8.85;;;-2.60;99.90;;;;;;5035090;28;20464;-64
2023/02/05 06:55:20;;;;;;;14.30;8.52;;;-2.50;99.90;;;;;;5030663;28;20504;-64
2023/02/05 06:57:47;;;;;;;19.42;9.77;;;-2.50;99.90;;;;;;5030081;28;20073;-64
2023/02/05 07:00:15;;;;;;;15.52;9.00;;;-2.50;99.90;;;;;;5030069;28;20464;-64
2023/02/05 07:02:42;;;;;;;14.02;8.32;;;-2.40;99.90;;;;;;5031057;28;20459;-65
2023/02/05 07:05:10;;;;;;;16.08;8.75;;;-2.30;99.90;;;;;;5029895;28;20038;-64
2023/02/05 07:07:37;;;;;;;16.27;9.55;;;-2.30;99.90;;;;;;5035736;28;20068;-64
2023/02/05 07:10:05;;;;;;;14.00;8.68;;;-2.20;99.90;;;;;;5052777;28;20128;-64
2023/02/05 07:12:32;;;;;;;20.25;9.85;;;-2.10;99.90;;;;;;5052719;28;20463;-64
2023/02/05 07:14:59;;;;;;;18.08;9.05;;;-2.10;99.90;;;;;;5033840;28;20124;-65
2023/02/05 07:17:26;;;;;;;14.88;9.18;;;-1.90;99.90;;;;;;5033310;28;20484;-64
2023/02/05 07:19:54;;;;;;;15.15;8.23;;;-1.90;99.90;;;;;;5041574;28;20041;-64
2023/02/05 07:22:21;;;;;;;14.10;7.88;;;-1.80;99.90;;;;;;5068681;28;20392;-64
2023/02/05 07:24:48;;;;;;;11.70;7.25;;;-1.80;99.90;;;;;;5051228;28;20403;-65
2023/02/05 07:27:16;;;;;;;15.45;8.98;;;-1.70;99.90;;;;;;5068586;28;20056;-65
2023/02/05 07:29:43;;;;;;;18.90;8.80;;;-1.70;99.90;;;;;;5041717;28;20049;-65
2023/02/05 07:32:10;;;;;;;14.90;8.50;;;-1.70;99.90;;;;;;5033047;28;20044;-64
2023/02/05 07:34:38;;;;;;;16.17;10.07;;;-1.60;99.90;;;;;;5033328;28;20104;-66
2023/02/05 07:37:05;;;;;;;14.55;8.55;;;-1.50;99.90;;;;;;5032919;28;20073;-64
2023/02/05 07:39:32;;;;;;;15.50;9.27;;;-1.50;99.90;;;;;;5035581;28;20488;-64
2023/02/05 07:42:00;;;;;;;14.40;8.20;;;-1.40;99.90;;;;;;5047906;28;20077;-64
2023/02/05 07:44:36;;;;;;;12.10;7.88;;;-1.30;99.90;;;;;;5036217;28;20456;-65
2023/02/05 07:47:03;;;;;;;12.95;7.95;;;-1.10;99.90;;;;;;5052869;28;20399;-64
2023/02/05 07:49:30;;;;;;;14.65;7.78;;;-1.00;99.90;;;;;;5049031;28;20110;-66
2023/02/05 07:51:58;;;;;;;12.80;8.10;;;-0.90;99.90;;;;;;5033964;28;20605;-65
2023/02/05 07:54:25;;;;;;;12.15;7.13;;;-0.90;99.90;;;;;;5047391;28;20052;-67
2023/02/05 07:56:54;;;;;;;11.73;7.32;;;-0.90;99.90;;;;;;5050288;28;20045;-66
2023/02/05 07:59:21;;;;;;;12.75;7.30;;;-0.80;99.90;;;;;;5052814;28;20041;-66
2023/02/05 08:01:48;;;;;;;10.77;6.70;;;-0.70;99.90;;;;;;5035442;28;20051;-64
2023/02/05 08:04:15;;;;;;;10.77;6.30;;;-0.60;99.90;;;;;;5033007;28;20435;-66
2023/02/05 08:06:43;;;;;;;12.55;6.85;;;-0.50;99.90;;;;;;5032866;28;20107;-65
2023/02/05 08:09:10;;;;;;;12.10;6.82;;;-0.50;99.90;;;;;;5032467;28;20041;-65
2023/02/05 08:11:37;;;;;;;10.52;7.15;;;-0.40;99.90;;;;;;5037031;28;20519;-65
2023/02/05 08:14:05;;;;;;;13.52;8.50;;;-0.30;99.90;;;;;;5041353;28;20053;-65
2023/02/05 08:16:32;;;;;;;12.93;7.45;;;-0.30;99.90;;;;;;5036787;28;20041;-63
2023/02/05 08:18:59;;;;;;;10.82;7.13;;;-0.20;99.90;;;;;;5046803;28;20044;-66
2023/02/05 08:21:27;;;;;;;11.38;7.00;;;-0.10;99.90;;;;;;5049233;28;20138;-66
2023/02/05 08:23:56;;;;;;;11.02;7.10;;;0.00;99.90;;;;;;5056565;28;20045;-66
2023/02/05 08:26:23;;;;;;;11.07;7.43;;;0.10;99.90;;;;;;5067353;28;20045;-66
2023/02/05 08:28:51;;;;;;;12.02;6.68;;;0.20;99.90;;;;;;5073572;28;20043;-66
2023/02/05 08:31:18;;;;;;;10.25;7.03;;;0.20;99.90;;;;;;5072827;28;20139;-66
2023/02/05 08:33:46;;;;;;;12.18;7.00;;;0.30;99.90;;;;;;5073237;28;20045;-66
2023/02/05 08:36:13;;;;;;;9.63;6.63;;;0.40;99.90;;;;;;5072509;28;20052;-66
2023/02/05 08:38:41;;;;;;;11.35;6.95;;;0.50;99.90;;;;;;5069579;28;20045;-66
2023/02/05 08:41:12;;;;;;;10.38;7.03;;;0.70;99.90;;;;;;5080730;28;20040;-66
2023/02/05 08:43:41;;;;;;;10.35;6.82;;;0.80;99.90;;;;;;5071699;28;20044;-66
2023/02/05 08:46:12;;;;;;;8.77;6.50;;;0.90;99.90;;;;;;5068618;28;20090;-65
2023/02/05 08:48:40;;;;;;;10.63;6.90;;;1.00;99.90;;;;;;5070398;28;20040;-64
2023/02/05 08:51:11;;;;;;;10.90;7.05;;;1.10;99.90;;;;;;5048165;28;20091;-64
2023/02/05 08:53:39;;;;;;;10.45;6.40;;;1.20;99.90;;;;;;5072484;28;20107;-66
2023/02/05 08:56:09;;;;;;;9.50;5.88;;;1.20;99.90;;;;;;5071458;28;20051;-64
2023/02/05 08:58:37;;;;;;;10.07;7.18;;;1.30;99.90;;;;;;5070993;28;20410;-65
2023/02/05 09:01:09;;;;;;;12.25;7.63;;;1.00;99.90;;;;;;5061605;28;20522;-65
2023/02/05 09:03:36;;;;;;;12.75;7.82;;;1.10;99.90;;;;;;5070586;28;20463;-65
2023/02/05 09:06:06;;;;;;;11.45;7.30;;;1.30;99.90;;;;;;5070741;28;20037;-66
2023/02/05 09:08:34;;;;;;;11.70;7.38;;;1.50;99.90;;;;;;5058820;28;20037;-65
2023/02/05 09:11:02;;;;;;;13.82;7.95;;;1.70;99.90;;;;;;5063878;28;20048;-65
2023/02/05 09:13:30;;;;;;;20.52;11.50;;;1.80;99.90;;;;;;5067442;28;20051;-65
2023/02/05 09:15:57;;;;;;;24.38;12.40;;;1.90;99.90;;;;;;5072140;28;20040;-65
2023/02/05 09:18:24;;;;;;;16.65;8.43;;;2.00;99.90;;;;;;5061962;28;20065;-64
2023/02/05 09:20:53;;;;;;;11.93;7.40;;;2.10;99.90;;;;;;5055835;28;20036;-65
2023/02/05 09:23:21;;;;;;;9.75;6.25;;;2.20;99.90;;;;;;5070977;28;20477;-65
2023/02/05 09:25:48;;;;;;;12.57;6.40;;;2.30;99.90;;;;;;5071945;28;20471;-65
2023/02/05 09:28:15;;;;;;;11.00;6.55;;;2.30;99.90;;;;;;5070802;28;20052;-65
2023/02/05 09:30:44;;;;;;;11.00;6.70;;;2.30;99.90;;;;;;5058222;28;20057;-65
2023/02/05 09:33:13;;;;;;;17.52;9.88;;;2.30;99.90;;;;;;5066490;28;20469;-69
2023/02/05 09:35:41;;;;;;;16.42;9.00;;;2.30;99.90;;;;;;5071336;28;20120;-65
2023/02/05 09:38:13;;;;;;;19.63;10.35;;;2.20;99.90;;;;;;5040574;28;20114;-64
2023/02/05 09:40:43;;;;;;;;;;;2.20;99.90;;;;;;5048120;28;20108;-64
2023/02/05 09:43:25;;;;;;;16.77;8.13;;;2.30;99.90;;;;;;5055419;28;19920;-64
2023/02/05 09:45:52;;;;;;;;;;;2.30;99.90;;;;;;5065539;28;20049;-64
2023/02/05 09:48:58;;;;;;;13.45;8.40;;;2.40;99.90;;;;;;5064434;28;20480;-64
2023/02/05 09:51:39;;;;;;;10.57;7.68;;;2.40;99.90;;;;;;5068293;28;20040;-64
2023/02/05 09:54:21;;;;;;;12.50;7.97;;;2.50;99.90;;;;;;5068007;28;20148;-64
2023/02/05 09:56:51;;;;;;;10.73;7.43;;;2.50;99.90;;;;;;5052943;28;20052;-64
2023/02/05 09:59:24;;;;;;;15.90;8.98;;;2.50;99.90;;;;;;5063716;28;20044;-65
2023/02/05 10:01:59;;;;;;;14.38;9.43;;;2.50;99.90;;;;;;5059484;28;20491;-64
2023/02/05 10:04:26;;;;;;;14.68;9.23;;;2.50;99.90;;;;;;5065360;28;20045;-65
2023/02/05 10:06:56;;;;;;;10.32;6.55;;;2.50;99.90;;;;;;5058737;28;20513;-63
2023/02/05 10:09:24;;;;;;;11.00;6.65;;;2.30;99.90;;;;;;5069563;28;20506;-64
2023/02/05 10:12:19;;;;;;;10.73;7.00;;;2.20;99.90;;;;;;5038069;28;20853;-64
2023/02/05 10:15:14;;;;;;;11.40;7.35;;;2.20;99.90;;;;;;5028243;28;20068;-64
2023/02/05 10:18:09;;;;;;;10.30;7.07;;;2.30;99.90;;;;;;5045536;28;20045;-63
2023/02/05 10:21:09;;;;;;;9.32;7.03;;;2.40;99.90;;;;;;5047861;28;20048;-64
2023/02/05 10:23:42;;;;;;;11.38;7.20;;;2.50;99.90;;;;;;5041909;28;20610;-63
2023/02/05 10:26:11;;;;;;;12.38;7.70;;;2.60;99.90;;;;;;5042910;28;20055;-63
2023/02/05 10:28:53;;;;;;;26.10;15.25;;;2.60;99.90;;;;;;5026798;28;20052;-63
2023/02/05 10:31:41;;;;;;;;;;;2.90;99.90;;;;;;5026441;28;20033;-64
2023/02/05 10:34:18;;;;;;;13.73;8.98;;;2.90;99.90;;;;;;5027562;28;20746;-63
2023/02/05 10:36:50;;;;;;;14.15;7.80;;;3.00;99.90;;;;;;5032825;28;20133;-63
2023/02/05 10:39:21;;;;;;;11.82;6.55;;;3.10;99.90;;;;;;5037770;28;20151;-62
2023/02/05 10:41:52;;;;;;;10.88;6.88;;;3.10;99.90;;;;;;5049475;28;20052;-63
2023/02/05 10:44:37;;;;;;;9.65;6.85;;;3.20;99.90;;;;;;5034801;28;20099;-63
2023/02/05 10:47:24;;;;;;;13.23;8.75;;;3.20;99.90;;;;;;5050110;28;20377;-63
2023/02/05 10:50:18;;;;;;;11.10;7.15;;;3.40;99.90;;;;;;5042919;28;20045;-63
2023/02/05 10:52:46;;;;;;;13.93;8.30;;;3.60;99.90;;;;;;5012123;28;20057;-64
2023/02/05 10:55:13;;;;;;;11.18;7.70;;;3.70;99.90;;;;;;5010835;28;20510;-64
2023/02/05 10:57:41;;;;;;;11.88;7.50;;;3.80;99.90;;;;;;5010336;28;20076;-63
2023/02/05 11:00:21;;;;;;;13.10;8.50;;;3.90;99.90;;;;;;5011323;28;20053;-63
2023/02/05 11:02:53;;;;;;;13.60;6.97;;;3.90;99.90;;;;;;5012280;28;20047;-63
2023/02/05 11:05:33;;;;;;;8.52;5.97;;;4.00;99.90;;;;;;5011745;28;20045;-63
2023/02/05 11:08:01;;;;;;;12.65;7.97;;;4.00;99.90;;;;;;5011230;28;20065;-63
2023/02/05 11:10:31;;;;;;;14.02;7.88;;;4.00;99.90;;;;;;4994095;28;20050;-64
2023/02/05 11:13:02;;;;;;;9.13;5.90;;;4.00;99.90;;;;;;5030610;28;20152;-64
2023/02/05 11:15:31;;;;;;;13.60;7.65;;;4.00;99.90;;;;;;5014378;28;20604;-64
2023/02/05 11:18:02;;;;;;;14.18;8.40;;;4.00;99.90;;;;;;5027625;28;20100;-64
2023/02/05 11:20:31;;;;;;;9.57;6.77;;;4.10;99.90;;;;;;5011055;28;20050;-63
2023/02/05 11:23:25;;;;;;;15.20;8.50;;;4.30;99.90;;;;;;5011078;28;20288;-64
2023/02/05 11:25:55;;;;;;;15.07;9.27;;;4.40;99.90;;;;;;4972486;28;20056;-63
2023/02/05 11:28:29;;;;;;;10.48;7.57;;;4.40;99.90;;;;;;4991504;28;20269;-63
2023/02/05 11:30:58;;;;;;;12.70;7.53;;;4.50;99.90;;;;;;5031228;28;20411;-63
2023/02/05 11:33:28;;;;;;;9.65;6.75;;;4.40;99.90;;;;;;5033047;28;20052;-64
2023/02/05 11:36:02;;;;;;;8.90;6.05;;;4.40;99.90;;;;;;5031414;28;20124;-64
2023/02/05 11:38:55;;;;;;;10.52;6.55;;;4.30;99.90;;;;;;5034471;28;20488;-64
2023/02/05 11:41:29;;;;;;;12.65;6.78;;;4.10;99.90;;;;;;5034270;28;20519;-64
2023/02/05 11:43:59;;;;;;;10.13;6.45;;;4.00;99.90;;;;;;5031898;28;20048;-64
2023/02/05 11:46:31;;;;;;;11.88;6.80;;;3.90;99.90;;;;;;5032213;28;20397;-64
2023/02/05 11:49:01;;;;;;;12.95;6.75;;;3.90;99.90;;;;;;5037137;28;20561;-64
2023/02/05 11:51:43;;;;;;;11.02;6.43;;;3.80;99.90;;;;;;5051812;28;20496;-64
2023/02/05 11:54:19;;;;;;;9.90;6.47;;;3.80;99.90;;;;;;5053428;28;20053;-64
2023/02/05 11:57:06;;;;;;;14.75;8.18;;;3.80;99.90;;;;;;5049186;28;20041;-64
2023/02/05 11:59:35;;;;;;;11.05;7.57;;;3.80;99.90;;;;;;5037132;28;20496;-64
2023/02/05 12:02:38;;;;;;;12.90;7.63;;;3.90;99.90;;;;;;5040454;28;20033;-63
2023/02/05 12:05:22;;;;;;;9.43;6.40;;;3.90;99.90;;;;;;5009630;28;20077;-65
2023/02/05 12:08:03;;;;;;;15.98;9.27;;;3.90;99.90;;;;;;4994793;28;20045;-64
2023/02/05 12:10:45;;;;;;;10.63;6.22;;;4.00;99.90;;;;;;5010022;28;20054;-64
2023/02/05 12:13:41;;;;;;;12.40;6.38;;;3.90;99.90;;;;;;5010992;28;20061;-64
2023/02/05 12:16:32;;;;;;;10.13;6.53;;;4.00;99.90;;;;;;5009563;28;20053;-63
2023/02/05 12:19:13;;;;;;;8.50;6.00;;;3.90;99.90;;;;;;5010799;28;20164;-64
2023/02/05 12:22:05;;;;;;;8.32;6.05;;;3.90;99.90;;;;;;5009955;28;20048;-64
2023/02/05 12:24:57;;;;;;;12.57;7.57;;;3.90;99.90;;;;;;5010616;28;20112;-64
2023/02/05 12:27:51;;;;;;;12.07;7.10;;;4.00;99.90;;;;;;5009717;28;20068;-63
2023/02/05 12:30:30;;;;;;;10.68;6.80;;;4.10;99.90;;;;;;5010104;28;20088;-63
2023/02/05 12:33:30;;;;;;;12.38;6.15;;;4.20;99.90;;;;;;4993932;28;20046;-64
2023/02/05 12:36:18;;;;;;;13.80;6.40;;;4.40;99.90;;;;;;4992528;28;20551;-64
2023/02/05 12:39:11;;;;;;;9.88;6.28;;;4.50;99.90;;;;;;5025031;28;20483;-63
2023/02/05 12:42:05;;;;;;;8.95;6.63;;;4.70;99.90;;;;;;5046618;28;20044;-62
2023/02/05 12:44:44;;;;;;;8.90;6.20;;;4.80;99.90;;;;;;5031360;28;20049;-63
2023/02/05 12:47:39;;;;;;;16.27;6.57;;;5.20;99.90;;;;;;5031846;28;20046;-63
2023/02/05 12:50:37;;;;;;;11.70;6.03;;;5.40;99.90;;;;;;5045185;28;20045;-63
2023/02/05 12:53:44;;;;;;;8.73;5.13;;;5.90;99.90;;;;;;5036250;28;20033;-63
2023/02/05 12:56:23;;;;;;;8.05;5.70;;;6.40;99.90;;;;;;5032047;28;20051;-63
2023/02/05 12:59:05;;;;;;;7.70;5.80;;;6.90;99.90;;;;;;5031222;28;20404;-63
2023/02/05 13:01:40;;;;;;;9.63;6.03;;;7.00;99.90;;;;;;5031720;28;20042;-65
2023/02/05 13:04:23;;;;;;;11.30;5.20;;;7.40;99.90;;;;;;5031426;28;20095;-64
2023/02/05 13:06:58;;;;;;;11.75;8.40;;;7.50;99.90;;;;;;5031093;28;20447;-66
2023/02/05 13:09:35;;;;;;;14.48;8.73;;;7.40;99.90;;;;;;5031060;28;20044;-64